createdAt,value
2023-03-30T00:09:22.856Z,20.08
2023-03-30T00:14:31.586Z,13.55
2023-03-30T01:11:17.818Z,17.92
2023-03-30T01:22:07.550Z,15.38
2023-03-30T01:27:43.466Z,17.42
2023-03-30T01:33:23.481Z,13.13
2023-03-30T01:39:09.576Z,21.58
2023-03-30T01:44:35.855Z,22.42
2023-03-30T01:49:47.674Z,13.98
2023-03-30T01:55:02.091Z,17.48
2023-03-30T02:00:14.796Z,13.75
2023-03-30T02:46:15.196Z,24.13
2023-03-30T02:56:51.488Z,25.80
2023-03-30T03:02:12.667Z,26.23
2023-03-30T04:07:18.622Z,22.63
2023-03-30T04:12:32.066Z,19.98
2023-03-30T05:13:53.785Z,19.73
2023-03-30T05:19:03.434Z,23.33
2023-03-30T05:24:26.445Z,17.42
2023-03-30T05:29:32.978Z,20.48
2023-03-30T05:34:42.221Z,18.10
2023-03-30T05:39:48.257Z,19.27
2023-03-30T05:45:00.510Z,19.20
2023-03-30T05:50:08.765Z,20.13
2023-03-30T05:55:17.440Z,19.30
2023-03-30T06:00:24.965Z,23.67
2023-03-30T06:51:25.681Z,21.02
2023-03-30T06:56:35.317Z,15.93
2023-03-30T07:01:40.479Z,18.50
2023-03-30T07:06:45.751Z,16.48
2023-03-30T08:17:14.197Z,13.48
2023-03-30T08:22:18.790Z,9.85
2023-03-30T08:27:27.761Z,8.82
2023-03-30T08:32:35.357Z,10.23
2023-03-30T08:37:55.062Z,12.50
2023-03-30T08:43:21.436Z,8.80
2023-03-30T08:48:37.975Z,11.63
2023-03-30T08:53:44.066Z,12.73
2023-03-30T08:58:57.704Z,9.68
2023-03-30T09:50:10.037Z,11.52
2023-03-30T09:55:31.148Z,11.48
2023-03-30T10:00:35.508Z,10.52
2023-03-30T10:05:41.540Z,9.48
2023-03-30T10:10:56.019Z,8.82
2023-03-30T10:16:17.836Z,9.52
2023-03-30T11:00:54.341Z,14.50
2023-03-30T11:06:03.753Z,14.95
2023-03-30T11:11:18.139Z,10.63
2023-03-30T11:16:35.559Z,15.65
2023-03-30T11:21:46.779Z,11.82
2023-03-30T11:26:54.939Z,9.32
2023-03-30T11:32:30.512Z,14.85
2023-03-30T12:33:13.502Z,12.30
2023-03-30T12:38:34.091Z,13.27
2023-03-30T12:43:48.859Z,13.15
2023-03-30T12:49:07.330Z,13.40
2023-03-30T12:55:28.236Z,13.63
2023-03-30T13:00:45.996Z,14.77
2023-03-30T13:05:56.603Z,14.90
2023-03-30T13:11:18.685Z,16.15
2023-03-30T13:16:47.979Z,16.42
2023-03-30T13:21:57.316Z,18.70
2023-03-30T13:27:24.544Z,17.80
2023-03-30T13:32:54.055Z,15.60
2023-03-30T13:38:36.128Z,15.38
2023-03-30T13:43:53.218Z,16.63
2023-03-30T13:49:16.218Z,17.10
2023-03-30T13:54:23.226Z,15.93
2023-03-30T13:59:31.755Z,18.90
2023-03-30T14:04:39.156Z,17.52
2023-03-30T14:09:42.341Z,17.42
2023-03-30T14:14:51.539Z,17.70
2023-03-30T14:20:09.362Z,19.15
2023-03-30T14:25:25.010Z,13.10
2023-03-30T14:30:31.450Z,18.30
2023-03-30T14:35:34.826Z,18.40
2023-03-30T14:40:42.648Z,21.67
2023-03-30T14:45:50.163Z,17.20
2023-03-30T14:50:54.987Z,14.88
2023-03-30T14:56:00.715Z,16.15
2023-03-30T15:01:12.734Z,15.68
2023-03-30T15:06:47.640Z,14.65
2023-03-30T16:16:41.928Z,19.00
2023-03-30T16:21:46.267Z,16.02
2023-03-30T16:31:56.085Z,15.10
2023-03-30T16:36:59.298Z,18.50
2023-03-30T16:42:05.134Z,19.63
2023-03-30T16:47:16.919Z,15.30
2023-03-30T16:52:20.097Z,18.40
2023-03-30T16:57:25.706Z,20.50
2023-03-30T17:02:30.508Z,22.10
2023-03-30T17:07:36.714Z,18.25
2023-03-30T17:12:41.802Z,16.15
2023-03-30T17:17:52.905Z,20.40
2023-03-30T17:23:19.014Z,19.88
2023-03-30T20:31:18.056Z,24.13
2023-03-30T20:41:30.383Z,21.98
2023-03-30T20:46:38.092Z,17.92
2023-03-30T20:51:43.331Z,20.42
2023-03-30T20:56:50.244Z,25.58
2023-03-30T21:02:00.147Z,28.67
2023-03-30T21:07:06.791Z,22.55
2023-03-30T21:12:12.389Z,29.58
2023-03-30T21:17:17.973Z,23.88
2023-03-30T21:22:21.536Z,18.70
2023-03-30T21:27:29.009Z,19.90
2023-03-30T21:32:39.236Z,22.40
2023-03-30T21:37:42.873Z,21.38
2023-03-30T21:42:54.583Z,31.52
2023-03-30T21:48:04.014Z,27.30
2023-03-30T21:53:10.762Z,23.75
2023-03-30T21:58:13.969Z,26.95
2023-03-30T22:03:21.368Z,22.77
2023-03-30T22:08:36.458Z,27.95
2023-03-30T22:13:39.711Z,23.17
2023-03-30T22:18:49.137Z,21.92
2023-03-30T22:23:55.820Z,21.40
2023-03-30T22:29:14.967Z,22.23
2023-03-30T22:34:19.502Z,19.58
2023-03-30T22:39:24.733Z,19.20
2023-03-30T22:44:32.404Z,13.90
2023-03-30T22:49:52.821Z,13.18
2023-03-30T22:54:58.889Z,10.35
2023-03-30T23:00:12.455Z,9.20
2023-03-30T23:05:22.327Z,10.43
2023-03-30T23:10:34.792Z,9.02
2023-03-30T23:15:42.196Z,9.40
2023-03-30T23:20:46.879Z,6.65
2023-03-30T23:31:00.272Z,8.65
2023-03-30T23:36:08.877Z,3.85
2023-03-30T23:41:16.568Z,4.60
2023-03-30T23:46:22.180Z,6.53
2023-03-30T23:51:34.395Z,6.65
2023-03-30T23:56:46.254Z,2.53
